London City Airport

Airport
ICAO code: 
EGLC
IATA Code: 
LCY
Summary
ICAO Region: 
EUR
Territory: 
Location: 
Silvertown, England
Serving: 
London
Elevation: 
19 ft
Coordinates: 
Aerial View: 
51° 30' 18.328" N, 0° 3' 17.342" E
Metar
Observation
EGLC 271720Z AUTO 30012KT 9999 NCD 19/05 Q1024
Station
London City Airport
Date/Time
2022-05-27 17:20:00
Wind direction
300°
Wind speed
12 kts
Lowest cloud amount
no clouds detected
Temperature
19°C
Dew point
5°C
Humidity
39%
QNH
1024 hPa
Weather condition
n/a

Description

Airport serving the City of London and the business district of Canary Wharf in London's Docklands.

Climatology

Temperate Marine climate/Oceanic climate (Köppen climate classification Cfb). Moderately cool summer and comparatively warm winter with a temperature range of only 14°C. Prevailing south-westerly winds from the Atlantic Ocean.

Runways

Designator Length Width Surface Rops
10/28 1508 30 CON Yes/Yes

SKYbrary Partners:

Safety knowledge contributed by: